sensor_id;sensor_type;location;lat;lon;timestamp;temperature;humidity
35491;DHT22;21605;52.068;20.806;2024-02-14T00:00:02;5.90;99.90
35491;DHT22;21605;52.068;20.806;2024-02-14T00:02:28;5.90;99.90
35491;DHT22;21605;52.068;20.806;2024-02-14T00:04:54;6.00;99.90
35491;DHT22;21605;52.068;20.806;2024-02-14T00:07:20;5.90;99.90
35491;DHT22;21605;52.068;20.806;2024-02-14T00:09:47;5.90;99.90
35491;DHT22;21605;52.068;20.806;2024-02-14T00:12:12;6.00;99.90
35491;DHT22;21605;52.068;20.806;2024-02-14T00:14:44;5.90;99.90
35491;DHT22;21605;52.068;20.806;2024-02-14T00:17:10;5.90;99.90
35491;DHT22;21605;52.068;20.806;2024-02-14T00:19:40;5.90;99.90
35491;DHT22;21605;52.068;20.806;2024-02-14T00:22:06;5.90;99.90
35491;DHT22;21605;52.068;20.806;2024-02-14T00:24:40;5.90;99.90
35491;DHT22;21605;52.068;20.806;2024-02-14T00:27:06;5.90;99.90
35491;DHT22;21605;52.068;20.806;2024-02-14T00:29:41;5.80;99.90
35491;DHT22;21605;52.068;20.806;2024-02-14T00:32:11;5.90;99.90
35491;DHT22;21605;52.068;20.806;2024-02-14T00:34:36;5.90;99.90
35491;DHT22;21605;52.068;20.806;2024-02-14T00:37:02;5.90;99.90
35491;DHT22;21605;52.068;20.806;2024-02-14T00:39:29;5.90;99.90
35491;DHT22;21605;52.068;20.806;2024-02-14T00:41:54;5.80;99.90
35491;DHT22;21605;52.068;20.806;2024-02-14T00:44:21;5.90;99.90
35491;DHT22;21605;52.068;20.806;2024-02-14T00:46:47;5.90;99.90
35491;DHT22;21605;52.068;20.806;2024-02-14T00:49:14;5.80;99.90
35491;DHT22;21605;52.068;20.806;2024-02-14T00:51:39;5.90;99.90
35491;DHT22;21605;52.068;20.806;2024-02-14T00:54:06;5.80;99.90
35491;DHT22;21605;52.068;20.806;2024-02-14T00:56:41;6.00;99.90
35491;DHT22;21605;52.068;20.806;2024-02-14T00:59:07;5.80;99.90
35491;DHT22;21605;52.068;20.806;2024-02-14T01:01:42;5.80;99.90
35491;DHT22;21605;52.068;20.806;2024-02-14T01:04:07;5.90;99.90
35491;DHT22;21605;52.068;20.806;2024-02-14T01:06:39;5.70;99.90
35491;DHT22;21605;52.068;20.806;2024-02-14T01:09:05;5.80;99.90
35491;DHT22;21605;52.068;20.806;2024-02-14T01:11:31;5.90;99.90
35491;DHT22;21605;52.068;20.806;2024-02-14T01:13:56;5.80;99.90
35491;DHT22;21605;52.068;20.806;2024-02-14T01:16:24;5.80;99.90
35491;DHT22;21605;52.068;20.806;2024-02-14T01:18:49;5.80;99.90
35491;DHT22;21605;52.068;20.806;2024-02-14T01:21:15;5.80;99.90
35491;DHT22;21605;52.068;20.806;2024-02-14T01:23:40;5.80;99.90
35491;DHT22;21605;52.068;20.806;2024-02-14T01:26:06;5.70;99.90
35491;DHT22;21605;52.068;20.806;2024-02-14T01:28:32;5.70;99.90
35491;DHT22;21605;52.068;20.806;2024-02-14T01:30:57;5.60;99.90
35491;DHT22;21605;52.068;20.806;2024-02-14T01:33:23;5.50;99.90
35491;DHT22;21605;52.068;20.806;2024-02-14T01:35:49;5.50;99.90
35491;DHT22;21605;52.068;20.806;2024-02-14T01:38:14;8.10;99.90
35491;DHT22;21605;52.068;20.806;2024-02-14T01:40:44;5.50;99.90
35491;DHT22;21605;52.068;20.806;2024-02-14T01:43:10;5.30;99.90
35491;DHT22;21605;52.068;20.806;2024-02-14T01:45:45;6.70;99.90
35491;DHT22;21605;52.068;20.806;2024-02-14T01:48:11;5.20;99.90
35491;DHT22;21605;52.068;20.806;2024-02-14T01:50:45;5.20;99.90
35491;DHT22;21605;52.068;20.806;2024-02-14T01:53:11;5.10;99.90
35491;DHT22;21605;52.068;20.806;2024-02-14T01:55:44;5.10;99.90
35491;DHT22;21605;52.068;20.806;2024-02-14T01:58:10;5.10;99.90
35491;DHT22;21605;52.068;20.806;2024-02-14T02:00:45;5.00;99.90
35491;DHT22;21605;52.068;20.806;2024-02-14T02:03:11;4.90;99.90
35491;DHT22;21605;52.068;20.806;2024-02-14T02:05:43;4.80;99.90
35491;DHT22;21605;52.068;20.806;2024-02-14T02:08:09;4.80;99.90
35491;DHT22;21605;52.068;20.806;2024-02-14T02:10:35;6.40;99.90
35491;DHT22;21605;52.068;20.806;2024-02-14T02:13:09;4.60;99.90
35491;DHT22;21605;52.068;20.806;2024-02-14T02:15:35;4.60;99.90
35491;DHT22;21605;52.068;20.806;2024-02-14T02:18:03;4.70;99.90
35491;DHT22;21605;52.068;20.806;2024-02-14T02:20:31;4.40;99.90
35491;DHT22;21605;52.068;20.806;2024-02-14T02:22:58;4.40;99.90
35491;DHT22;21605;52.068;20.806;2024-02-14T02:25:24;4.30;99.90
35491;DHT22;21605;52.068;20.806;2024-02-14T02:27:54;4.20;99.90
35491;DHT22;21605;52.068;20.806;2024-02-14T02:30:22;4.20;99.90
35491;DHT22;21605;52.068;20.806;2024-02-14T02:32:51;4.10;99.90
35491;DHT22;21605;52.068;20.806;2024-02-14T02:35:17;4.00;99.90
35491;DHT22;21605;52.068;20.806;2024-02-14T02:37:48;4.00;99.90
35491;DHT22;21605;52.068;20.806;2024-02-14T02:40:16;3.90;99.90
35491;DHT22;21605;52.068;20.806;2024-02-14T02:42:48;3.90;99.90
35491;DHT22;21605;52.068;20.806;2024-02-14T02:45:15;3.80;99.90
35491;DHT22;21605;52.068;20.806;2024-02-14T02:47:50;3.70;99.90
35491;DHT22;21605;52.068;20.806;2024-02-14T02:50:19;3.60;99.90
35491;DHT22;21605;52.068;20.806;2024-02-14T02:52:45;3.50;99.90
35491;DHT22;21605;52.068;20.806;2024-02-14T02:55:11;3.50;99.90
35491;DHT22;21605;52.068;20.806;2024-02-14T02:57:36;3.50;99.90
35491;DHT22;21605;52.068;20.806;2024-02-14T03:00:11;3.40;99.90
35491;DHT22;21605;52.068;20.806;2024-02-14T03:02:47;3.30;99.90
35491;DHT22;21605;52.068;20.806;2024-02-14T03:05:13;3.30;99.90
35491;DHT22;21605;52.068;20.806;2024-02-14T03:07:53;3.20;99.90
35491;DHT22;21605;52.068;20.806;2024-02-14T03:10:19;3.00;99.90
35491;DHT22;21605;52.068;20.806;2024-02-14T03:12:49;3.10;99.90
35491;DHT22;21605;52.068;20.806;2024-02-14T03:15:15;3.10;99.90
35491;DHT22;21605;52.068;20.806;2024-02-14T03:17:47;3.10;99.90
35491;DHT22;21605;52.068;20.806;2024-02-14T03:20:12;3.10;99.90
35491;DHT22;21605;52.068;20.806;2024-02-14T03:22:54;3.10;99.90
35491;DHT22;21605;52.068;20.806;2024-02-14T03:25:20;3.00;99.90
35491;DHT22;21605;52.068;20.806;2024-02-14T03:27:49;3.00;99.90
35491;DHT22;21605;52.068;20.806;2024-02-14T03:30:18;3.00;99.90
35491;DHT22;21605;52.068;20.806;2024-02-14T03:32:51;3.00;99.90
35491;DHT22;21605;52.068;20.806;2024-02-14T03:35:17;3.00;99.90
35491;DHT22;21605;52.068;20.806;2024-02-14T03:37:49;3.00;99.90
35491;DHT22;21605;52.068;20.806;2024-02-14T03:40:17;2.90;99.90
35491;DHT22;21605;52.068;20.806;2024-02-14T03:42:51;3.00;99.90
35491;DHT22;21605;52.068;20.806;2024-02-14T03:45:17;3.00;99.90
35491;DHT22;21605;52.068;20.806;2024-02-14T03:47:48;3.00;99.90
35491;DHT22;21605;52.068;20.806;2024-02-14T03:50:14;3.00;99.90
35491;DHT22;21605;52.068;20.806;2024-02-14T03:52:50;2.90;99.90
35491;DHT22;21605;52.068;20.806;2024-02-14T03:55:16;2.90;99.90
35491;DHT22;21605;52.068;20.806;2024-02-14T03:57:53;2.90;99.90
35491;DHT22;21605;52.068;20.806;2024-02-14T04:00:19;2.90;99.90
35491;DHT22;21605;52.068;20.806;2024-02-14T04:02:50;2.80;99.90
35491;DHT22;21605;52.068;20.806;2024-02-14T04:05:19;2.80;99.90
35491;DHT22;21605;52.068;20.806;2024-02-14T04:07:54;2.80;99.90
35491;DHT22;21605;52.068;20.806;2024-02-14T04:10:20;2.70;99.90
35491;DHT22;21605;52.068;20.806;2024-02-14T04:12:54;2.70;99.90
35491;DHT22;21605;52.068;20.806;2024-02-14T04:15:20;2.60;99.90
35491;DHT22;21605;52.068;20.806;2024-02-14T04:17:55;2.60;99.90
35491;DHT22;21605;52.068;20.806;2024-02-14T04:20:20;2.60;99.90
35491;DHT22;21605;52.068;20.806;2024-02-14T04:22:46;2.60;99.90
35491;DHT22;21605;52.068;20.806;2024-02-14T04:25:11;2.50;99.90
35491;DHT22;21605;52.068;20.806;2024-02-14T04:27:37;4.40;99.90
35491;DHT22;21605;52.068;20.806;2024-02-14T04:30:03;2.50;99.90
35491;DHT22;21605;52.068;20.806;2024-02-14T04:32:29;2.40;99.90
35491;DHT22;21605;52.068;20.806;2024-02-14T04:34:55;2.40;99.90
35491;DHT22;21605;52.068;20.806;2024-02-14T04:37:21;2.40;99.90
35491;DHT22;21605;52.068;20.806;2024-02-14T04:39:50;2.30;99.90
35491;DHT22;21605;52.068;20.806;2024-02-14T04:42:15;2.30;99.90
35491;DHT22;21605;52.068;20.806;2024-02-14T04:44:41;2.30;99.90
35491;DHT22;21605;52.068;20.806;2024-02-14T04:47:06;2.30;99.90
35491;DHT22;21605;52.068;20.806;2024-02-14T04:49:35;2.20;99.90
35491;DHT22;21605;52.068;20.806;2024-02-14T04:52:00;2.20;99.90
35491;DHT22;21605;52.068;20.806;2024-02-14T04:54:26;2.10;99.90
35491;DHT22;21605;52.068;20.806;2024-02-14T04:56:53;2.10;99.90
35491;DHT22;21605;52.068;20.806;2024-02-14T04:59:19;2.00;99.90
35491;DHT22;21605;52.068;20.806;2024-02-14T05:01:47;2.00;99.90
35491;DHT22;21605;52.068;20.806;2024-02-14T05:04:13;2.00;99.90
35491;DHT22;21605;52.068;20.806;2024-02-14T05:06:39;2.00;99.90
35491;DHT22;21605;52.068;20.806;2024-02-14T05:09:05;1.90;99.90
35491;DHT22;21605;52.068;20.806;2024-02-14T05:11:30;1.90;99.90
35491;DHT22;21605;52.068;20.806;2024-02-14T05:13:56;1.90;99.90
35491;DHT22;21605;52.068;20.806;2024-02-14T05:16:22;1.80;99.90
35491;DHT22;21605;52.068;20.806;2024-02-14T05:18:57;1.80;99.90
35491;DHT22;21605;52.068;20.806;2024-02-14T05:21:23;1.80;99.90
35491;DHT22;21605;52.068;20.806;2024-02-14T05:23:54;1.80;99.90
35491;DHT22;21605;52.068;20.806;2024-02-14T05:26:20;1.70;99.90
35491;DHT22;21605;52.068;20.806;2024-02-14T05:28:55;1.70;99.90
35491;DHT22;21605;52.068;20.806;2024-02-14T05:31:20;1.90;99.90
35491;DHT22;21605;52.068;20.806;2024-02-14T05:33:55;1.70;99.90
35491;DHT22;21605;52.068;20.806;2024-02-14T05:36:21;1.60;99.90
35491;DHT22;21605;52.068;20.806;2024-02-14T05:38:56;1.60;99.90
35491;DHT22;21605;52.068;20.806;2024-02-14T05:41:21;1.60;99.90
35491;DHT22;21605;52.068;20.806;2024-02-14T05:43:49;1.60;99.90
35491;DHT22;21605;52.068;20.806;2024-02-14T05:46:15;1.60;99.90
35491;DHT22;21605;52.068;20.806;2024-02-14T05:48:41;1.50;99.90
35491;DHT22;21605;52.068;20.806;2024-02-14T05:51:07;1.50;99.90
35491;DHT22;21605;52.068;20.806;2024-02-14T05:53:33;1.50;99.90
35491;DHT22;21605;52.068;20.806;2024-02-14T05:55:58;1.50;99.90
35491;DHT22;21605;52.068;20.806;2024-02-14T05:58:24;1.50;99.90
35491;DHT22;21605;52.068;20.806;2024-02-14T06:00:59;1.50;99.90
35491;DHT22;21605;52.068;20.806;2024-02-14T06:03:24;1.40;99.90
35491;DHT22;21605;52.068;20.806;2024-02-14T06:05:56;1.40;99.90
35491;DHT22;21605;52.068;20.806;2024-02-14T06:08:22;1.40;99.90
35491;DHT22;21605;52.068;20.806;2024-02-14T06:10:49;1.40;99.90
35491;DHT22;21605;52.068;20.806;2024-02-14T06:13:15;1.30;99.90
35491;DHT22;21605;52.068;20.806;2024-02-14T06:15:40;1.40;99.90
35491;DHT22;21605;52.068;20.806;2024-02-14T06:18:06;1.30;99.90
35491;DHT22;21605;52.068;20.806;2024-02-14T06:20:32;1.30;99.90
35491;DHT22;21605;52.068;20.806;2024-02-14T06:22:57;1.30;99.90
35491;DHT22;21605;52.068;20.806;2024-02-14T06:25:23;1.30;99.90
35491;DHT22;21605;52.068;20.806;2024-02-14T06:27:52;1.30;99.90
35491;DHT22;21605;52.068;20.806;2024-02-14T06:30:19;1.30;99.90
35491;DHT22;21605;52.068;20.806;2024-02-14T06:32:44;1.30;99.90
35491;DHT22;21605;52.068;20.806;2024-02-14T06:35:10;1.30;99.90
35491;DHT22;21605;52.068;20.806;2024-02-14T06:37:36;1.40;99.90
35491;DHT22;21605;52.068;20.806;2024-02-14T06:40:01;1.40;99.90
35491;DHT22;21605;52.068;20.806;2024-02-14T06:42:27;1.40;99.90
35491;DHT22;21605;52.068;20.806;2024-02-14T06:45:02;1.50;99.90
35491;DHT22;21605;52.068;20.806;2024-02-14T06:47:28;1.50;99.90
35491;DHT22;21605;52.068;20.806;2024-02-14T06:49:58;1.50;99.90
35491;DHT22;21605;52.068;20.806;2024-02-14T06:52:24;1.50;99.90
35491;DHT22;21605;52.068;20.806;2024-02-14T06:54:59;1.60;99.90
35491;DHT22;21605;52.068;20.806;2024-02-14T06:57:25;1.70;99.90
35491;DHT22;21605;52.068;20.806;2024-02-14T06:59:52;1.80;99.90
35491;DHT22;21605;52.068;20.806;2024-02-14T07:02:17;1.90;99.90
35491;DHT22;21605;52.068;20.806;2024-02-14T07:04:43;2.30;99.90
35491;DHT22;21605;52.068;20.806;2024-02-14T07:07:09;3.30;99.90
35491;DHT22;21605;52.068;20.806;2024-02-14T07:09:34;4.60;99.90
35491;DHT22;21605;52.068;20.806;2024-02-14T07:12:04;5.60;99.90
35491;DHT22;21605;52.068;20.806;2024-02-14T07:14:30;6.00;99.90
35491;DHT22;21605;52.068;20.806;2024-02-14T07:17:02;6.40;99.90
35491;DHT22;21605;52.068;20.806;2024-02-14T07:19:28;6.70;99.90
35491;DHT22;21605;52.068;20.806;2024-02-14T07:21:59;6.70;99.90
35491;DHT22;21605;52.068;20.806;2024-02-14T07:24:24;6.50;99.90
35491;DHT22;21605;52.068;20.806;2024-02-14T07:26:59;6.40;99.90
35491;DHT22;21605;52.068;20.806;2024-02-14T07:29:25;6.20;99.90
35491;DHT22;21605;52.068;20.806;2024-02-14T07:32:02;6.30;99.90
35491;DHT22;21605;52.068;20.806;2024-02-14T07:34:27;6.20;99.90
35491;DHT22;21605;52.068;20.806;2024-02-14T07:36:59;6.50;99.90
35491;DHT22;21605;52.068;20.806;2024-02-14T07:39:25;6.70;99.90
35491;DHT22;21605;52.068;20.806;2024-02-14T07:42:05;6.80;99.90
35491;DHT22;21605;52.068;20.806;2024-02-14T07:44:31;6.80;99.90
35491;DHT22;21605;52.068;20.806;2024-02-14T07:47:01;6.70;99.90
35491;DHT22;21605;52.068;20.806;2024-02-14T07:49:27;6.70;99.90
35491;DHT22;21605;52.068;20.806;2024-02-14T07:52:03;6.60;99.90
35491;DHT22;21605;52.068;20.806;2024-02-14T07:54:28;6.50;99.90
35491;DHT22;21605;52.068;20.806;2024-02-14T07:56:59;6.70;99.90
35491;DHT22;21605;52.068;20.806;2024-02-14T07:59:25;6.50;99.90
35491;DHT22;21605;52.068;20.806;2024-02-14T08:01:50;6.60;99.90
35491;DHT22;21605;52.068;20.806;2024-02-14T08:04:16;6.50;99.90
35491;DHT22;21605;52.068;20.806;2024-02-14T08:06:42;6.60;99.90
35491;DHT22;21605;52.068;20.806;2024-02-14T08:09:09;6.70;99.90
35491;DHT22;21605;52.068;20.806;2024-02-14T08:11:36;8.30;99.90
35491;DHT22;21605;52.068;20.806;2024-02-14T08:14:01;6.60;99.90
35491;DHT22;21605;52.068;20.806;2024-02-14T08:16:28;6.60;99.90
35491;DHT22;21605;52.068;20.806;2024-02-14T08:19:03;6.60;99.90
35491;DHT22;21605;52.068;20.806;2024-02-14T08:21:28;6.80;99.90
35491;DHT22;21605;52.068;20.806;2024-02-14T08:23:59;6.80;99.90
35491;DHT22;21605;52.068;20.806;2024-02-14T08:26:24;6.90;99.90
35491;DHT22;21605;52.068;20.806;2024-02-14T08:28:50;7.00;99.90
35491;DHT22;21605;52.068;20.806;2024-02-14T08:31:16;6.90;99.90
35491;DHT22;21605;52.068;20.806;2024-02-14T08:33:42;7.00;99.90
35491;DHT22;21605;52.068;20.806;2024-02-14T08:36:07;7.00;99.90
35491;DHT22;21605;52.068;20.806;2024-02-14T08:38:34;7.10;99.90
35491;DHT22;21605;52.068;20.806;2024-02-14T08:41:03;7.20;99.90
35491;DHT22;21605;52.068;20.806;2024-02-14T08:43:29;7.20;99.90
35491;DHT22;21605;52.068;20.806;2024-02-14T08:46:09;7.30;99.90
35491;DHT22;21605;52.068;20.806;2024-02-14T08:48:35;7.30;99.90
35491;DHT22;21605;52.068;20.806;2024-02-14T08:51:02;7.40;99.90
35491;DHT22;21605;52.068;20.806;2024-02-14T08:53:29;7.40;99.90
35491;DHT22;21605;52.068;20.806;2024-02-14T08:56:04;7.70;99.90
35491;DHT22;21605;52.068;20.806;2024-02-14T08:58:30;8.00;99.90
35491;DHT22;21605;52.068;20.806;2024-02-14T09:01:04;8.20;99.90
35491;DHT22;21605;52.068;20.806;2024-02-14T09:03:31;8.70;99.90
35491;DHT22;21605;52.068;20.806;2024-02-14T09:06:05;8.80;99.90
35491;DHT22;21605;52.068;20.806;2024-02-14T09:08:31;9.10;99.90
35491;DHT22;21605;52.068;20.806;2024-02-14T09:11:06;9.40;99.90
35491;DHT22;21605;52.068;20.806;2024-02-14T09:13:32;9.80;99.90
35491;DHT22;21605;52.068;20.806;2024-02-14T09:16:04;10.00;99.90
35491;DHT22;21605;52.068;20.806;2024-02-14T09:18:31;10.30;99.90
35491;DHT22;21605;52.068;20.806;2024-02-14T09:20:57;10.60;99.90
35491;DHT22;21605;52.068;20.806;2024-02-14T09:23:23;10.70;99.90
35491;DHT22;21605;52.068;20.806;2024-02-14T09:25:49;11.00;99.90
35491;DHT22;21605;52.068;20.806;2024-02-14T09:28:19;11.40;99.90
35491;DHT22;21605;52.068;20.806;2024-02-14T09:30:45;11.50;99.90
35491;DHT22;21605;52.068;20.806;2024-02-14T09:33:10;11.60;99.90
35491;DHT22;21605;52.068;20.806;2024-02-14T09:35:37;11.90;99.90
35491;DHT22;21605;52.068;20.806;2024-02-14T09:38:05;12.00;99.90
35491;DHT22;21605;52.068;20.806;2024-02-14T09:40:31;12.00;99.90
35491;DHT22;21605;52.068;20.806;2024-02-14T09:43:03;12.20;99.90
35491;DHT22;21605;52.068;20.806;2024-02-14T09:45:30;12.20;99.90
35491;DHT22;21605;52.068;20.806;2024-02-14T09:48:05;12.10;99.90
35491;DHT22;21605;52.068;20.806;2024-02-14T09:50:34;12.00;99.90
35491;DHT22;21605;52.068;20.806;2024-02-14T09:53:00;11.90;99.90
35491;DHT22;21605;52.068;20.806;2024-02-14T09:55:25;12.00;99.90
35491;DHT22;21605;52.068;20.806;2024-02-14T09:57:52;12.10;99.90
35491;DHT22;21605;52.068;20.806;2024-02-14T10:00:20;12.10;99.90
35491;DHT22;21605;52.068;20.806;2024-02-14T10:02:47;12.40;99.90
35491;DHT22;21605;52.068;20.806;2024-02-14T10:05:12;12.60;99.90
35491;DHT22;21605;52.068;20.806;2024-02-14T10:07:41;12.90;99.90
35491;DHT22;21605;52.068;20.806;2024-02-14T10:10:08;11.10;99.90
35491;DHT22;21605;52.068;20.806;2024-02-14T10:12:34;13.30;99.90
35491;DHT22;21605;52.068;20.806;2024-02-14T10:15:09;13.60;99.90
35491;DHT22;21605;52.068;20.806;2024-02-14T10:17:34;13.80;99.90
35491;DHT22;21605;52.068;20.806;2024-02-14T10:20:07;13.90;99.90
35491;DHT22;21605;52.068;20.806;2024-02-14T10:22:34;14.00;99.90
35491;DHT22;21605;52.068;20.806;2024-02-14T10:25:07;13.70;98.10
35491;DHT22;21605;52.068;20.806;2024-02-14T10:27:37;13.80;99.90
35491;DHT22;21605;52.068;20.806;2024-02-14T10:30:08;14.00;99.90
35491;DHT22;21605;52.068;20.806;2024-02-14T10:32:37;14.10;99.90
35491;DHT22;21605;52.068;20.806;2024-02-14T10:35:07;14.50;99.90
35491;DHT22;21605;52.068;20.806;2024-02-14T10:37:34;14.50;99.90
35491;DHT22;21605;52.068;20.806;2024-02-14T10:40:08;14.50;99.00
35491;DHT22;21605;52.068;20.806;2024-02-14T10:42:34;14.80;99.90
35491;DHT22;21605;52.068;20.806;2024-02-14T10:45:09;15.00;99.60
35491;DHT22;21605;52.068;20.806;2024-02-14T10:47:36;15.00;99.70
35491;DHT22;21605;52.068;20.806;2024-02-14T10:50:06;14.00;98.40
35491;DHT22;21605;52.068;20.806;2024-02-14T10:52:34;15.00;99.90
35491;DHT22;21605;52.068;20.806;2024-02-14T10:55:09;15.20;99.90
35491;DHT22;21605;52.068;20.806;2024-02-14T10:57:37;15.20;99.90
35491;DHT22;21605;52.068;20.806;2024-02-14T11:00:10;15.40;99.90
35491;DHT22;21605;52.068;20.806;2024-02-14T11:02:36;15.20;95.30
35491;DHT22;21605;52.068;20.806;2024-02-14T11:05:13;15.20;99.90
35491;DHT22;21605;52.068;20.806;2024-02-14T11:07:49;15.30;98.20
35491;DHT22;21605;52.068;20.806;2024-02-14T11:10:19;15.70;96.70
35491;DHT22;21605;52.068;20.806;2024-02-14T11:12:47;16.10;97.70
35491;DHT22;21605;52.068;20.806;2024-02-14T11:17:43;16.70;99.90
35491;DHT22;21605;52.068;20.806;2024-02-14T11:20:21;16.80;99.00
35491;DHT22;21605;52.068;20.806;2024-02-14T11:23:10;16.50;94.90
35491;DHT22;21605;52.068;20.806;2024-02-14T11:25:39;16.60;99.90
35491;DHT22;21605;52.068;20.806;2024-02-14T11:28:23;16.10;89.40
35491;DHT22;21605;52.068;20.806;2024-02-14T11:30:51;16.50;95.20
35491;DHT22;21605;52.068;20.806;2024-02-14T11:35:45;16.70;99.90
35491;DHT22;21605;52.068;20.806;2024-02-14T11:38:11;16.40;91.80
35491;DHT22;21605;52.068;20.806;2024-02-14T11:40:37;16.50;91.90
35491;DHT22;21605;52.068;20.806;2024-02-14T11:43:11;16.60;96.80
35491;DHT22;21605;52.068;20.806;2024-02-14T11:45:38;16.70;97.60
35491;DHT22;21605;52.068;20.806;2024-02-14T11:48:13;16.60;97.30
35491;DHT22;21605;52.068;20.806;2024-02-14T11:50:42;16.40;92.10
35491;DHT22;21605;52.068;20.806;2024-02-14T11:53:12;16.30;95.50
35491;DHT22;21605;52.068;20.806;2024-02-14T11:55:39;16.10;91.00
35491;DHT22;21605;52.068;20.806;2024-02-14T11:58:09;15.70;91.90
35491;DHT22;21605;52.068;20.806;2024-02-14T12:00:37;15.90;97.40
35491;DHT22;21605;52.068;20.806;2024-02-14T12:03:16;15.60;96.00
35491;DHT22;21605;52.068;20.806;2024-02-14T12:05:42;15.70;93.50
35491;DHT22;21605;52.068;20.806;2024-02-14T12:08:10;15.50;89.40
35491;DHT22;21605;52.068;20.806;2024-02-14T12:10:36;15.40;95.10
35491;DHT22;21605;52.068;20.806;2024-02-14T12:13:09;15.50;95.50
35491;DHT22;21605;52.068;20.806;2024-02-14T12:15:44;15.30;92.20
35491;DHT22;21605;52.068;20.806;2024-02-14T12:18:11;14.80;83.50
35491;DHT22;21605;52.068;20.806;2024-02-14T12:20:41;14.50;87.00
35491;DHT22;21605;52.068;20.806;2024-02-14T12:23:16;14.60;92.40
35491;DHT22;21605;52.068;20.806;2024-02-14T12:25:47;14.60;90.40
35491;DHT22;21605;52.068;20.806;2024-02-14T12:28:17;14.60;93.70
35491;DHT22;21605;52.068;20.806;2024-02-14T12:30:47;14.80;95.60
35491;DHT22;21605;52.068;20.806;2024-02-14T12:33:21;14.90;96.80
35491;DHT22;21605;52.068;20.806;2024-02-14T12:35:49;14.70;95.10
35491;DHT22;21605;52.068;20.806;2024-02-14T12:38:16;14.50;92.30
35491;DHT22;21605;52.068;20.806;2024-02-14T12:40:42;14.10;93.30
35491;DHT22;21605;52.068;20.806;2024-02-14T12:43:15;14.30;94.00
35491;DHT22;21605;52.068;20.806;2024-02-14T12:45:42;13.80;94.80
35491;DHT22;21605;52.068;20.806;2024-02-14T12:48:21;13.70;94.20
35491;DHT22;21605;52.068;20.806;2024-02-14T12:50:47;13.50;94.40
35491;DHT22;21605;52.068;20.806;2024-02-14T12:53:15;13.30;96.10
35491;DHT22;21605;52.068;20.806;2024-02-14T12:55:40;13.20;94.20
35491;DHT22;21605;52.068;20.806;2024-02-14T12:58:15;13.00;94.30
35491;DHT22;21605;52.068;20.806;2024-02-14T13:00:41;14.00;95.30
35491;DHT22;21605;52.068;20.806;2024-02-14T13:03:14;12.80;94.40
35491;DHT22;21605;52.068;20.806;2024-02-14T13:05:40;12.60;93.40
35491;DHT22;21605;52.068;20.806;2024-02-14T13:08:15;12.40;90.90
35491;DHT22;21605;52.068;20.806;2024-02-14T13:10:43;12.40;93.40
35491;DHT22;21605;52.068;20.806;2024-02-14T13:13:14;12.20;92.20
35491;DHT22;21605;52.068;20.806;2024-02-14T13:15:40;12.20;94.40
35491;DHT22;21605;52.068;20.806;2024-02-14T13:18:21;12.10;95.80
35491;DHT22;21605;52.068;20.806;2024-02-14T13:20:47;12.20;96.40
35491;DHT22;21605;52.068;20.806;2024-02-14T13:23:13;12.20;94.40
35491;DHT22;21605;52.068;20.806;2024-02-14T13:25:40;12.20;94.90
35491;DHT22;21605;52.068;20.806;2024-02-14T13:28:06;12.20;95.40
35491;DHT22;21605;52.068;20.806;2024-02-14T13:30:32;12.00;93.60
35491;DHT22;21605;52.068;20.806;2024-02-14T13:32:58;12.00;94.20
35491;DHT22;21605;52.068;20.806;2024-02-14T13:35:24;11.80;94.00
35491;DHT22;21605;52.068;20.806;2024-02-14T13:37:49;11.60;94.30
35491;DHT22;21605;52.068;20.806;2024-02-14T13:40:15;11.60;93.60
35491;DHT22;21605;52.068;20.806;2024-02-14T13:42:41;11.60;95.80
35491;DHT22;21605;52.068;20.806;2024-02-14T13:45:23;11.70;95.50
35491;DHT22;21605;52.068;20.806;2024-02-14T13:47:49;11.60;94.70
35491;DHT22;21605;52.068;20.806;2024-02-14T13:50:15;11.50;94.50
35491;DHT22;21605;52.068;20.806;2024-02-14T13:52:41;11.40;94.70
35491;DHT22;21605;52.068;20.806;2024-02-14T13:55:16;11.40;95.50
35491;DHT22;21605;52.068;20.806;2024-02-14T13:57:42;11.40;95.70
35491;DHT22;21605;52.068;20.806;2024-02-14T14:00:18;11.20;92.80
35491;DHT22;21605;52.068;20.806;2024-02-14T14:02:44;11.00;92.70
35491;DHT22;21605;52.068;20.806;2024-02-14T14:05:19;10.90;95.10
35491;DHT22;21605;52.068;20.806;2024-02-14T14:07:47;10.90;94.70
35491;DHT22;21605;52.068;20.806;2024-02-14T14:10:17;11.00;96.90
35491;DHT22;21605;52.068;20.806;2024-02-14T14:12:43;11.00;96.50
35491;DHT22;21605;52.068;20.806;2024-02-14T14:15:17;10.90;96.20
35491;DHT22;21605;52.068;20.806;2024-02-14T14:17:43;10.80;96.10
35491;DHT22;21605;52.068;20.806;2024-02-14T14:20:18;10.90;95.80
35491;DHT22;21605;52.068;20.806;2024-02-14T14:22:44;10.80;95.40
35491;DHT22;21605;52.068;20.806;2024-02-14T14:25:19;10.80;96.40
35491;DHT22;21605;52.068;20.806;2024-02-14T14:27:44;10.80;95.80
35491;DHT22;21605;52.068;20.806;2024-02-14T14:30:20;10.80;96.00
35491;DHT22;21605;52.068;20.806;2024-02-14T14:32:45;10.70;95.70
35491;DHT22;21605;52.068;20.806;2024-02-14T14:35:20;10.70;96.10
35491;DHT22;21605;52.068;20.806;2024-02-14T14:37:46;10.70;95.60
35491;DHT22;21605;52.068;20.806;2024-02-14T14:40:17;10.50;96.10
35491;DHT22;21605;52.068;20.806;2024-02-14T14:42:43;10.40;95.40
35491;DHT22;21605;52.068;20.806;2024-02-14T14:45:08;10.40;95.60
35491;DHT22;21605;52.068;20.806;2024-02-14T14:47:34;10.30;96.70
35491;DHT22;21605;52.068;20.806;2024-02-14T14:50:00;10.30;96.90
35491;DHT22;21605;52.068;20.806;2024-02-14T14:52:26;10.20;95.90
35491;DHT22;21605;52.068;20.806;2024-02-14T14:54:52;10.10;97.10
35491;DHT22;21605;52.068;20.806;2024-02-14T14:57:18;10.00;96.70
35491;DHT22;21605;52.068;20.806;2024-02-14T14:59:44;9.90;96.50
35491;DHT22;21605;52.068;20.806;2024-02-14T15:02:10;10.00;96.80
35491;DHT22;21605;52.068;20.806;2024-02-14T15:04:35;9.80;97.00
35491;DHT22;21605;52.068;20.806;2024-02-14T15:07:03;9.80;97.30
35491;DHT22;21605;52.068;20.806;2024-02-14T15:09:28;9.70;96.80
35491;DHT22;21605;52.068;20.806;2024-02-14T15:11:54;9.70;96.90
35491;DHT22;21605;52.068;20.806;2024-02-14T15:14:22;9.60;97.80
35491;DHT22;21605;52.068;20.806;2024-02-14T15:16:47;9.60;97.80
35491;DHT22;21605;52.068;20.806;2024-02-14T15:19:18;9.80;97.50
35491;DHT22;21605;52.068;20.806;2024-02-14T15:21:44;9.40;97.70
35491;DHT22;21605;52.068;20.806;2024-02-14T15:24:09;9.30;97.60
35491;DHT22;21605;52.068;20.806;2024-02-14T15:26:35;9.30;97.10
35491;DHT22;21605;52.068;20.806;2024-02-14T15:29:23;9.10;97.40
35491;DHT22;21605;52.068;20.806;2024-02-14T15:32:07;9.50;97.30
35491;DHT22;21605;52.068;20.806;2024-02-14T15:34:51;9.00;97.80
35491;DHT22;21605;52.068;20.806;2024-02-14T15:37:17;8.90;98.00